Time;durP1;ratioP1;P1;durP2;ratioP2;P2;SDS_P1;SDS_P2;PMS_P1;PMS_P2;Temp;Humidity;BMP_temperature;BMP_pressure;BME280_temperature;BME280_humidity;BME280_pressure;Samples;Min_cycle;Max_cycle;Signal;HPM_P1;HPM_P2
2022/10/11 07:46:41;;;;;;;;;37.50;32.00;;;;;;;;5134790;27;13452;-73
2022/10/11 07:49:07;;;;;;;;;31.50;29.00;;;;;;;;5126287;27;11493;-75
2022/10/11 07:51:32;;;;;;;;;32.25;29.25;;;;;;;;5126153;27;8836;-76
2022/10/11 07:53:57;;;;;;;;;29.25;25.50;;;;;;;;5126935;27;8831;-74
2022/10/11 07:56:25;;;;;;;;;27.75;27.50;;;;;;;;5126444;27;8926;-74
2022/10/11 07:58:51;;;;;;;;;26.50;24.00;;;;;;;;5127072;27;9494;-74
2022/10/11 08:01:16;;;;;;;;;32.75;26.75;;;;;;;;5127147;27;10965;-75
2022/10/11 08:03:41;;;;;;;;;32.00;27.75;;;;;;;;5108464;27;10918;-75
2022/10/11 08:06:08;;;;;;;;;30.25;27.75;;;;;;;;5127118;27;8799;-75
2022/10/11 08:08:33;;;;;;;;;27.75;27.25;;;;;;;;5127078;27;8792;-75
2022/10/11 08:10:59;;;;;;;;;25.25;25.25;;;;;;;;5126889;27;10507;-75
2022/10/11 08:13:24;;;;;;;;;25.50;25.00;;;;;;;;5127065;27;8830;-75
2022/10/11 08:15:50;;;;;;;;;26.50;22.75;;;;;;;;5126561;27;8887;-74
2022/10/11 08:18:16;;;;;;;;;27.50;23.50;;;;;;;;5126905;27;8888;-76
2022/10/11 08:20:41;;;;;;;;;24.25;22.50;;;;;;;;5127001;27;8815;-77
2022/10/11 08:23:06;;;;;;;;;22.25;20.25;;;;;;;;5126966;27;8780;-73
2022/10/11 08:25:36;;;;;;;;;26.00;24.25;;;;;;;;5107960;27;8832;-73
2022/10/11 08:28:01;;;;;;;;;27.00;23.50;;;;;;;;5127050;27;8848;-76
2022/10/11 08:30:27;;;;;;;;;22.75;21.00;;;;;;;;5125545;27;10127;-79
2022/10/11 08:32:52;;;;;;;;;20.25;18.75;;;;;;;;5084725;27;8818;-79
2022/10/11 08:35:17;;;;;;;;;21.75;20.50;;;;;;;;5115127;27;8828;-78
2022/10/11 08:37:42;;;;;;;;;27.25;24.25;;;;;;;;5117348;27;8950;-79
2022/10/11 08:40:13;;;;;;;;;28.25;26.50;;;;;;;;5116996;27;8774;-79
2022/10/11 08:42:43;;;;;;;;;33.00;28.00;;;;;;;;5116812;27;8950;-79
2022/10/11 08:45:16;;;;;;;;;23.50;22.25;;;;;;;;5113556;28;10356;-75
2022/10/11 08:47:43;;;;;;;;;24.00;23.25;;;;;;;;5111835;28;10120;-80
2022/10/11 08:50:15;;;;;;;;;22.50;19.75;;;;;;;;5107436;28;10629;-80
2022/10/11 08:52:47;;;;;;;;;26.50;24.25;;;;;;;;5088201;28;10382;-78
2022/10/11 08:55:24;;;;;;;;;26.00;22.25;;;;;;;;5106568;28;9750;-79
2022/10/11 08:57:52;;;;;;;;;26.75;21.00;;;;;;;;5092419;28;9407;-79
2022/10/11 09:00:18;;;;;;;;;20.33;20.33;;;;;;;;5074681;28;9420;-79
2022/10/11 09:03:03;;;;;;;;;22.33;21.00;;;;;;;;5092898;28;9188;-79
2022/10/11 09:05:34;;;;;;;;;22.00;20.00;;;;;;;;5074050;28;9143;-78
2022/10/11 09:08:18;;;;;;;;;21.75;20.25;;;;;;;;5093061;28;8965;-78
2022/10/11 09:10:43;;;;;;;;;17.50;15.25;;;;;;;;5092448;28;8779;-78
2022/10/11 09:13:15;;;;;;;;;15.00;14.00;;;;;;;;5107037;28;8864;-78
2022/10/11 09:15:45;;;;;;;;;15.50;15.50;;;;;;;;5112523;28;8970;-77
2022/10/11 09:18:14;;;;;;;;;12.00;11.00;;;;;;;;5094556;28;8814;-78
2022/10/11 09:20:48;;;;;;;;;14.50;14.00;;;;;;;;5112655;28;8788;-78
2022/10/11 09:23:32;;;;;;;;;15.00;13.25;;;;;;;;5112485;28;8949;-78
2022/10/11 09:26:01;;;;;;;;;12.00;12.00;;;;;;;;5094093;28;8840;-79
2022/10/11 09:28:32;;;;;;;;;13.75;13.25;;;;;;;;5112467;28;8788;-79
2022/10/11 09:30:58;;;;;;;;;11.75;11.00;;;;;;;;5112980;28;8822;-79
2022/10/11 09:33:34;;;;;;;;;11.33;11.33;;;;;;;;5112743;28;8808;-77
2022/10/11 09:36:00;;;;;;;;;15.00;14.25;;;;;;;;5093730;28;8844;-79
2022/10/11 09:38:45;;;;;;;;;15.00;14.00;;;;;;;;5112521;28;9529;-80
2022/10/11 09:41:25;;;;;;;;;13.75;12.50;;;;;;;;5112422;28;8823;-79
2022/10/11 09:43:51;;;;;;;;;14.50;12.25;;;;;;;;5093779;28;8812;-81
2022/10/11 09:46:19;;;;;;;;;11.67;11.67;;;;;;;;5111989;28;8818;-79
2022/10/11 09:48:45;;;;;;;;;11.80;11.80;;;;;;;;5112245;28;8794;-76
2022/10/11 09:51:13;;;;;;;;;13.00;12.50;;;;;;;;5112809;28;8870;-77
2022/10/11 09:53:56;;;;;;;;;12.80;12.60;;;;;;;;5112101;28;8780;-80
2022/10/11 09:56:22;;;;;;;;;12.60;12.60;;;;;;;;5112280;28;8810;-77
2022/10/11 09:58:48;;;;;;;;;11.40;11.40;;;;;;;;5094358;28;9534;-79
2022/10/11 10:01:24;;;;;;;;;14.25;14.25;;;;;;;;5112054;28;8819;-82
2022/10/11 10:04:03;;;;;;;;;12.20;11.00;;;;;;;;5112548;28;8780;-81
2022/10/11 10:06:28;;;;;;;;;14.40;12.40;;;;;;;;5093480;28;8822;-77
2022/10/11 10:08:54;;;;;;;;;13.00;12.50;;;;;;;;5111146;28;8795;-77
2022/10/11 10:11:20;;;;;;;;;11.40;11.40;;;;;;;;5111986;28;8798;-81
2022/10/11 10:13:53;;;;;;;;;12.25;12.25;;;;;;;;5111924;28;8795;-79
2022/10/11 10:16:18;;;;;;;;;14.20;14.00;;;;;;;;5111373;28;10480;-75
2022/10/11 10:18:49;;;;;;;;;14.25;12.75;;;;;;;;5111166;28;8807;-79
2022/10/11 10:21:14;;;;;;;;;10.20;10.20;;;;;;;;5093200;28;8800;-80
2022/10/11 10:23:40;;;;;;;;;11.00;10.75;;;;;;;;5111202;28;8810;-77
2022/10/11 10:26:09;;;;;;;;;12.80;12.60;;;;;;;;5111442;28;8792;-75
2022/10/11 10:28:34;;;;;;;;;14.20;12.40;;;;;;;;5092874;28;8843;-76
2022/10/11 10:30:59;;;;;;;;;11.75;11.75;;;;;;;;5111191;28;8876;-83
2022/10/11 10:33:28;;;;;;;;;12.25;12.00;;;;;;;;5110623;28;8906;-75
2022/10/11 10:36:04;;;;;;;;;14.40;12.80;;;;;;;;5110496;28;9009;-78
2022/10/11 10:38:39;;;;;;;;;10.20;10.20;;;;;;;;5110850;28;8775;-75
2022/10/11 10:41:08;;;;;;;;;12.60;12.60;;;;;;;;5110840;28;8791;-76
2022/10/11 10:43:34;;;;;;;;;10.40;10.40;;;;;;;;5111611;28;8904;-79
2022/10/11 10:46:14;;;;;;;;;10.20;10.00;;;;;;;;5111111;28;8819;-76
2022/10/11 10:48:43;;;;;;;;;12.80;11.40;;;;;;;;5092379;28;8804;-77
2022/10/11 10:51:28;;;;;;;;;11.00;11.00;;;;;;;;5092661;28;8792;-80
2022/10/11 10:54:13;;;;;;;;;11.60;11.60;;;;;;;;5089140;28;8922;-75
2022/10/11 10:56:45;;;;;;;;;13.60;13.20;;;;;;;;5112126;28;8826;-78
2022/10/11 10:59:13;;;;;;;;;13.20;12.00;;;;;;;;5111922;28;8804;-79
2022/10/11 11:01:49;;;;;;;;;11.75;11.25;;;;;;;;5110638;28;8788;-79
2022/10/11 11:04:25;;;;;;;;;12.00;12.00;;;;;;;;5111099;28;8803;-79
2022/10/11 11:06:54;;;;;;;;;13.00;12.25;;;;;;;;5113913;28;8848;-79
2022/10/11 11:09:25;;;;;;;;;16.00;11.00;;;;;;;;5122157;28;8784;-78
2022/10/11 11:12:01;;;;;;;;;13.75;11.75;;;;;;;;5110881;28;8868;-78
2022/10/11 11:14:33;;;;;;;;;12.00;12.00;;;;;;;;5112653;28;8816;-78
2022/10/11 11:16:58;;;;;;;;;13.50;13.50;;;;;;;;5111806;28;8764;-78
2022/10/11 11:19:24;;;;;;;;;15.00;13.33;;;;;;;;5111152;28;8887;-78
2022/10/11 11:21:55;;;;;;;;;15.00;12.33;;;;;;;;5111246;28;8826;-77
2022/10/11 11:24:24;;;;;;;;;7.25;7.00;;;;;;;;5111021;28;8856;-78
2022/10/11 11:27:00;;;;;;;;;12.00;12.00;;;;;;;;5092248;28;8780;-78
2022/10/11 11:29:31;;;;;;;;;14.25;13.50;;;;;;;;5110578;28;8887;-78
2022/10/11 11:32:00;;;;;;;;;11.75;10.00;;;;;;;;5110731;28;8780;-77
2022/10/11 11:34:30;;;;;;;;;16.00;13.50;;;;;;;;5110408;28;8788;-78
2022/10/11 11:36:59;;;;;;;;;10.25;8.25;;;;;;;;5110799;28;8779;-78
2022/10/11 11:39:28;;;;;;;;;12.25;12.25;;;;;;;;5110433;28;8772;-78
2022/10/11 11:41:54;;;;;;;;;15.00;12.00;;;;;;;;5111017;28;8974;-78
2022/10/11 11:44:30;;;;;;;;;13.00;13.00;;;;;;;;5092374;28;8943;-77
2022/10/11 11:46:56;;;;;;;;;13.25;11.25;;;;;;;;5110283;28;8889;-78
2022/10/11 11:49:29;;;;;;;;;15.00;13.00;;;;;;;;5110329;28;8827;-78
2022/10/11 11:51:56;;;;;;;;;13.00;13.00;;;;;;;;5109935;28;8780;-78
2022/10/11 11:54:30;;;;;;;;;15.75;14.00;;;;;;;;5109805;28;8816;-77
2022/10/11 11:57:10;;;;;;;;;14.25;13.00;;;;;;;;5109908;28;8788;-77
2022/10/11 11:59:55;;;;;;;;;14.00;12.25;;;;;;;;5109909;28;8772;-78
2022/10/11 12:02:33;;;;;;;;;15.50;12.25;;;;;;;;5109636;28;8796;-77
2022/10/11 12:04:58;;;;;;;;;14.00;13.00;;;;;;;;5110191;28;8768;-77
2022/10/11 12:07:26;;;;;;;;;13.67;11.33;;;;;;;;5109358;28;8907;-78
2022/10/11 12:09:53;;;;;;;;;18.00;18.00;;;;;;;;5091715;28;8800;-77
2022/10/11 12:12:36;;;;;;;;;15.25;14.50;;;;;;;;5109844;28;8881;-77
2022/10/11 12:15:03;;;;;;;;;14.25;13.00;;;;;;;;5091400;28;8803;-77
2022/10/11 12:17:29;;;;;;;;;13.75;13.75;;;;;;;;5091514;28;9526;-79
2022/10/11 12:20:07;;;;;;;;;14.33;13.33;;;;;;;;5110407;28;8845;-79
2022/10/11 12:22:41;;;;;;;;;11.25;11.25;;;;;;;;5110215;28;8818;-79
2022/10/11 12:25:09;;;;;;;;;15.50;13.75;;;;;;;;5109793;28;8784;-79
2022/10/11 12:27:39;;;;;;;;;15.50;14.25;;;;;;;;5110163;28;8780;-78
2022/10/11 12:30:24;;;;;;;;;13.00;12.00;;;;;;;;5110165;28;9509;-78
2022/10/11 12:32:51;;;;;;;;;16.50;16.50;;;;;;;;5112319;28;8795;-78
2022/10/11 12:35:32;;;;;;;;;14.75;14.00;;;;;;;;5113784;28;8812;-78
2022/10/11 12:38:13;;;;;;;;;16.75;14.50;;;;;;;;5114001;28;9186;-78
2022/10/11 12:40:42;;;;;;;;;14.25;14.00;;;;;;;;5114268;28;8806;-77
2022/10/11 12:43:13;;;;;;;;;13.50;13.00;;;;;;;;5114171;28;9610;-78
2022/10/11 12:45:40;;;;;;;;;15.50;14.75;;;;;;;;5094362;28;8823;-78
2022/10/11 12:48:14;;;;;;;;;19.00;17.00;;;;;;;;5094893;28;9544;-77
2022/10/11 12:51:00;;;;;;;;;16.67;13.33;;;;;;;;5114254;28;9013;-79
2022/10/11 12:53:28;;;;;;;;;17.00;14.00;;;;;;;;5094346;28;8878;-77
2022/10/11 12:56:12;;;;;;;;;16.25;14.75;;;;;;;;5114033;28;9672;-77
2022/10/11 12:58:42;;;;;;;;;17.33;15.00;;;;;;;;5113730;28;8796;-78
2022/10/11 13:01:10;;;;;;;;;16.25;14.50;;;;;;;;5113213;28;9637;-78
2022/10/11 13:03:38;;;;;;;;;15.67;15.00;;;;;;;;5113850;28;9006;-78
2022/10/11 13:06:16;;;;;;;;;17.00;15.00;;;;;;;;5113317;28;9757;-77
2022/10/11 13:08:42;;;;;;;;;16.67;16.67;;;;;;;;5095035;28;9045;-78
2022/10/11 13:11:09;;;;;;;;;14.75;12.25;;;;;;;;5095328;28;9059;-78
2022/10/11 13:13:43;;;;;;;;;15.25;15.25;;;;;;;;5113343;28;8814;-78
2022/10/11 13:16:13;;;;;;;;;17.67;16.33;;;;;;;;5113012;28;8815;-78
2022/10/11 13:18:40;;;;;;;;;15.25;15.25;;;;;;;;5113531;28;9640;-77
2022/10/11 13:21:16;;;;;;;;;16.00;15.00;;;;;;;;5113518;28;8897;-78
2022/10/11 13:23:42;;;;;;;;;15.67;15.00;;;;;;;;5113109;28;9023;-78
2022/10/11 13:26:07;;;;;;;;;17.33;17.00;;;;;;;;5113081;28;9192;-76
2022/10/11 13:28:33;;;;;;;;;6.00;6.00;;;;;;;;5113421;28;8768;-78
2022/10/11 13:30:58;;;;;;;;;20.33;18.00;;;;;;;;5123583;28;8799;-78
2022/10/11 13:33:25;;;;;;;;;17.00;15.00;;;;;;;;5114132;28;8796;-77
2022/10/11 13:35:51;;;;;;;;;17.00;17.00;;;;;;;;5113478;28;8856;-78
2022/10/11 13:38:22;;;;;;;;;19.00;16.67;;;;;;;;5113107;28;9159;-78
2022/10/11 13:40:47;;;;;;;;;15.00;15.00;;;;;;;;5113066;28;8776;-78
2022/10/11 13:43:14;;;;;;;;;16.67;15.00;;;;;;;;5131999;22;9242;-72
2022/10/11 13:45:40;;;;;;;;;18.00;15.67;;;;;;;;5051483;28;8802;-73
2022/10/11 13:48:12;;;;;;;;;18.67;17.00;;;;;;;;5050996;28;10084;-72
2022/10/11 13:50:38;;;;;;;;;17.00;17.00;;;;;;;;5050824;28;8914;-73
2022/10/11 13:53:09;;;;;;;;;19.33;16.67;;;;;;;;5051072;28;9441;-73
2022/10/11 13:55:45;;;;;;;;;15.33;15.00;;;;;;;;5051108;28;11416;-73
2022/10/11 13:58:21;;;;;;;;;17.00;16.33;;;;;;;;5051196;28;8946;-73
2022/10/11 14:00:55;;;;;;;;;13.67;13.67;;;;;;;;5033105;28;10002;-73
2022/10/11 14:03:20;;;;;;;;;16.67;16.00;;;;;;;;5033042;28;9340;-73
2022/10/11 14:05:57;;;;;;;;;20.00;17.33;;;;;;;;5051064;28;9607;-73
2022/10/11 14:08:40;;;;;;;;;15.00;15.00;;;;;;;;5050902;28;9537;-73
2022/10/11 14:11:07;;;;;;;;;15.33;15.00;;;;;;;;5050692;28;9533;-73
2022/10/11 14:13:37;;;;;;;;;18.00;14.00;;;;;;;;5068093;28;9110;-73
2022/10/11 14:16:05;;;;;;;;;17.67;17.67;;;;;;;;5070445;28;9191;-71
2022/10/11 14:18:36;;;;;;;;;19.33;16.33;;;;;;;;5070649;28;9209;-72
2022/10/11 14:21:16;;;;;;;;;17.00;15.33;;;;;;;;5070792;28;9237;-72
2022/10/11 14:23:41;;;;;;;;;16.33;14.67;;;;;;;;5070910;28;9972;-72
2022/10/11 14:26:07;;;;;;;;;16.67;16.67;;;;;;;;5070617;28;9231;-71
2022/10/11 14:28:33;;;;;;;;;16.33;14.33;;;;;;;;5070389;28;8808;-71
2022/10/11 14:30:58;;;;;;;;;16.00;16.00;;;;;;;;5065034;28;9204;-69
2022/10/11 14:33:23;;;;;;;;;15.67;14.67;;;;;;;;5050129;28;8806;-75
2022/10/11 14:35:49;;;;;;;;;18.00;15.25;;;;;;;;5049541;28;8838;-75
2022/10/11 14:38:14;;;;;;;;;18.00;17.25;;;;;;;;5050187;28;8782;-70
2022/10/11 14:40:39;;;;;;;;;14.33;14.33;;;;;;;;5052284;28;8825;-71
2022/10/11 14:43:05;;;;;;;;;17.00;15.00;;;;;;;;5051320;28;8816;-78
2022/10/11 14:45:30;;;;;;;;;18.50;15.50;;;;;;;;5059744;28;8873;-69
2022/10/11 14:47:56;;;;;;;;;17.25;17.00;;;;;;;;5031877;28;8814;-73
2022/10/11 14:50:30;;;;;;;;;14.50;13.00;;;;;;;;5049846;28;8805;-74
2022/10/11 14:52:56;;;;;;;;;16.75;15.75;;;;;;;;5050135;28;8798;-72
2022/10/11 14:55:21;;;;;;;;;16.75;16.75;;;;;;;;5049869;28;9379;-72
2022/10/11 14:57:47;;;;;;;;;19.50;18.00;;;;;;;;5050006;28;9559;-72
2022/10/11 15:00:15;;;;;;;;;19.25;19.25;;;;;;;;5049798;28;8815;-72
2022/10/11 15:02:40;;;;;;;;;17.75;17.75;;;;;;;;5049397;28;8852;-72
2022/10/11 15:05:05;;;;;;;;;19.50;16.00;;;;;;;;5049932;28;9578;-72
2022/10/11 15:07:32;;;;;;;;;21.25;17.00;;;;;;;;5049748;28;8803;-72
2022/10/11 15:09:57;;;;;;;;;16.25;16.25;;;;;;;;5050011;28;8806;-72
2022/10/11 15:12:22;;;;;;;;;17.25;15.50;;;;;;;;5057269;28;9547;-72
2022/10/11 15:14:47;;;;;;;;;15.50;15.25;;;;;;;;5050845;28;8836;-72
2022/10/11 15:17:13;;;;;;;;;17.00;17.00;;;;;;;;5068337;28;8800;-72
2022/10/11 15:19:38;;;;;;;;;17.75;15.00;;;;;;;;5068005;28;8804;-72
2022/10/11 15:22:04;;;;;;;;;20.00;18.25;;;;;;;;5068242;28;8796;-72
2022/10/11 15:24:30;;;;;;;;;17.00;15.00;;;;;;;;5068400;28;8780;-72
2022/10/11 15:26:55;;;;;;;;;16.00;16.00;;;;;;;;5068211;28;9580;-72
2022/10/11 15:29:23;;;;;;;;;17.25;16.75;;;;;;;;5068143;28;8908;-71
2022/10/11 15:31:48;;;;;;;;;15.00;14.75;;;;;;;;5049847;28;9557;-71
2022/10/11 15:34:14;;;;;;;;;15.75;14.25;;;;;;;;5067904;28;9650;-71
2022/10/11 15:36:40;;;;;;;;;14.00;13.00;;;;;;;;5067829;28;8812;-71
2022/10/11 15:39:25;;;;;;;;;17.00;15.25;;;;;;;;5067490;28;8792;-71
2022/10/11 15:41:51;;;;;;;;;18.25;17.00;;;;;;;;5067782;28;8926;-71
2022/10/11 15:44:16;;;;;;;;;17.50;16.25;;;;;;;;5050089;28;9834;-71
2022/10/11 15:46:42;;;;;;;;;22.25;16.50;;;;;;;;5067870;28;8784;-71
2022/10/11 15:49:14;;;;;;;;;17.50;17.50;;;;;;;;5067557;28;9008;-70
2022/10/11 15:51:39;;;;;;;;;17.50;17.00;;;;;;;;5051024;28;10463;-70
2022/10/11 15:54:05;;;;;;;;;20.25;17.75;;;;;;;;5071674;28;10035;-72
2022/10/11 15:56:30;;;;;;;;;14.75;14.50;;;;;;;;5049470;28;8844;-71
2022/10/11 15:58:56;;;;;;;;;18.50;18.00;;;;;;;;5067807;28;8799;-71
2022/10/11 16:01:22;;;;;;;;;17.00;14.50;;;;;;;;5068533;28;8824;-71
2022/10/11 16:03:48;;;;;;;;;16.75;16.75;;;;;;;;5068692;28;9518;-71
2022/10/11 16:06:13;;;;;;;;;20.00;18.00;;;;;;;;5069261;28;8884;-71
2022/10/11 16:08:38;;;;;;;;;16.00;15.00;;;;;;;;5072172;28;8872;-71
2022/10/11 16:11:05;;;;;;;;;15.75;15.00;;;;;;;;5071734;28;8804;-71
2022/10/11 16:13:30;;;;;;;;;16.75;16.50;;;;;;;;5071711;28;8804;-71
2022/10/11 16:15:55;;;;;;;;;19.00;18.25;;;;;;;;5071799;28;9844;-71
2022/10/11 16:18:21;;;;;;;;;18.75;17.75;;;;;;;;5071676;28;8846;-71
2022/10/11 16:20:48;;;;;;;;;17.50;17.50;;;;;;;;5071950;28;8823;-71
2022/10/11 16:23:14;;;;;;;;;22.00;20.50;;;;;;;;5071798;28;9555;-71
2022/10/11 16:25:40;;;;;;;;;20.25;16.75;;;;;;;;5071655;28;9856;-71
2022/10/11 16:28:06;;;;;;;;;19.00;16.00;;;;;;;;5071674;28;8844;-71
2022/10/11 16:30:32;;;;;;;;;16.75;14.75;;;;;;;;5071418;28;8884;-71
2022/10/11 16:32:57;;;;;;;;;21.00;18.00;;;;;;;;5071197;28;10069;-71
2022/10/11 16:35:22;;;;;;;;;19.75;19.00;;;;;;;;5071715;28;8812;-71
2022/10/11 16:37:48;;;;;;;;;19.00;17.50;;;;;;;;5071661;28;9548;-71
2022/10/11 16:40:19;;;;;;;;;19.50;19.50;;;;;;;;5071805;28;8804;-72
